Nearby METAR Reports

EGNX - East Midlands, United Kingdom
Distance: S 18mi, 28km
Updated: 17/07/2019 03:50
Clear
Clear
 Wind from calm
Wind: Calm
Temperature: 15°C
Dew Point: 13°C
Humidity: 88%
Barometer: 1015 hPa
Summary: Clear
Visibility: greater than 7 miles , 10 km
2019/07/17 02:50 EGNX 170250Z 00000KT CAVOK 15/13 Q1015
EGCN - Doncaster Sheffi, United Kingdom
Distance: NNE 31mi, 50km
Updated: 17/07/2019 03:50
Clear
Clear
 Wind from varies
Wind: varies 2 mph , 4 km/h
Temperature: 15°C
Dew Point: 13°C
Humidity: 88%
Barometer: 1016 hPa
Summary: Clear
Visibility: greater than 7 miles , 10 km
2019/07/17 02:50 EGCN 170250Z VRB02KT CAVOK 15/13 Q1016
EGYE - Barkston Heath R, United Kingdom
Distance: ESE 31mi, 50km
Updated: 16/07/2019 14:50
NOT Current
Clear
Clear
 Wind from WNW
Wind: WNW 7 mph , 11 km/h
Barometer: 1018 hPa
Summary: Clear
Visibility: greater than 7 miles , 10 km
2019/07/16 13:50 EGYE 161350Z 30006KT CAVOK ///// Q1018 RMK BLU
 
EGXW - Waddington Raf, United Kingdom
Distance: ENE 33mi, 53km
Updated: 17/07/2019 03:50
Clear
Clear
 Wind from NE
Wind: NE 5 mph , 7 km/h
Temperature: 16°C
Dew Point: 11°C
Humidity: 72%
Barometer: 1015 hPa
Summary: Clear
Visibility: greater than 7 miles , 10 km
2019/07/17 02:50 EGXW 170250Z 04004KT CAVOK 16/11 Q1015 RMK BLU
EGYD - Cranwell Raf, United Kingdom
Distance: E 33mi, 53km
Updated: 17/07/2019 03:50
Mostly cloudy
Mostly cloudy
 Wind from N
Wind: N 6 mph , 9 km/h
Temperature: 16°C
Dew Point: 12°C
Humidity: 77%
Barometer: 1015 hPa
Clouds: Mostly cloudy
Visibility: 6 miles , 10 km
Cloud details: Mostly cloudy 2743 m
2019/07/17 02:50 EGYD 170250Z AUTO 01005KT 9999 // BKN090/// 16/12 Q1015
EGXP - Scampton Raf, United Kingdom
Distance: ENE 35mi, 56km
Updated: 17/07/2019 03:50
Clear
Clear
 Wind from NNE
Wind: NNE 5 mph , 7 km/h
Temperature: 15°C
Dew Point: 11°C
Humidity: 77%
Barometer: 1015 hPa
Clouds: Clear
Visibility: 6 miles , 10 km
2019/07/17 02:50 EGXP 170250Z AUTO 03004KT 9999 // NCD 15/11 Q1015
 
EGCC - Manchester Intl, United Kingdom
Distance: WNW 45mi, 72km
Updated: 17/07/2019 03:50
Clear
Clear
 Wind from varies
Wind: varies 2 mph , 4 km/h
Temperature: 12°C
Dew Point: 11°C
Humidity: 94%
Barometer: 1016 hPa
Clouds: Clear
Visibility: 6 miles , 10 km
2019/07/17 02:50 EGCC 170250Z AUTO VRB02KT 9999 NCD 12/11 Q1016
EGBB - Birmingham Airpo, United Kingdom
Distance: SSW 46mi, 74km
Updated: 17/07/2019 03:50
Clear
Clear
 Wind from S
Wind: S 5 mph , 7 km/h
Temperature: 14°C
Dew Point: 12°C
Humidity: 88%
Barometer: 1016 hPa
Summary: Clear
Visibility: greater than 7 miles , 10 km
2019/07/17 02:50 EGBB 170250Z 19004KT CAVOK 14/12 Q1016
EGXC - Coningsby Raf, United Kingdom
Distance: E 47mi, 75km
Updated: 17/07/2019 03:50
Clear
Clear
 Wind from E
Wind: E 3 mph , 6 km/h
Temperature: 17°C
Dew Point: 14°C
Humidity: 83%
Barometer: 1015 hPa
Summary: Clear
Visibility: greater than 7 miles , 10 km
2019/07/17 02:50 EGXC 170250Z 08003KT CAVOK 17/14 Q1015 RMK BLU
 
EGXT - Wittering Raf, United Kingdom
Distance: SE 47mi, 75km
Updated: 17/07/2019 03:50
Few Clouds
Few Clouds
 Wind from W
Wind: W 3 mph , 6 km/h
Temperature: 14°C
Dew Point: 12°C
Humidity: 88%
Barometer: 1015 hPa
Clouds: Few Clouds
Visibility: 6 miles , 10 km
Cloud details: Few Clouds 2743 m
2019/07/17 02:50 EGXT 170250Z AUTO 28003KT 9999 FEW090/// 14/12 Q1015
EGNJ - Humberside, United Kingdom
Distance: NE 52mi, 83km
Updated: 17/07/2019 03:50
Clear
Clear
 Wind from SSW
Wind: SSW 5 mph , 7 km/h
Temperature: 14°C
Dew Point: 12°C
Humidity: 88%
Barometer: 1015 hPa
Clouds: Clear
Visibility: 6 miles , 10 km
2019/07/17 02:50 EGNJ 170250Z AUTO 20004KT 9999 NCD 14/12 Q1015
EGWC - Cosford Raf, United Kingdom
Distance: SW 52mi, 83km
Updated: 16/07/2019 16:50
NOT Current
Mostly cloudy
Mostly cloudy
 Wind from NNW
Wind: NNW 3 mph , 6 km/h
Temperature: 22°C
Dew Point: 13°C
Humidity: 57%
Barometer: 1018 hPa
Clouds: Mostly cloudy
Visibility: 6 miles , 10 km
Cloud details: Few Clouds 1219 m
Mostly cloudy 2438 m
2019/07/16 15:50 EGWC 161550Z 33003KT 9999 FEW040 BKN080 22/13 Q1018 RMK BLU
 
EGNM - Leeds And Bradfo, United Kingdom
Distance: NNW 57mi, 91km
Updated: 17/07/2019 03:50
Clear
Clear
 Wind from W
Wind: W 9 mph , 15 km/h
Temperature: 14°C
Dew Point: 9°C
Humidity: 72%
Barometer: 1015 hPa
Summary: Clear
Visibility: greater than 7 miles , 10 km
2019/07/17 02:50 EGNM 170250Z 26008KT CAVOK 14/09 Q1015
EGOS - Shawbury Raf, United Kingdom
Distance: WSW 60mi, 97km
Updated: 17/07/2019 03:50
Mostly cloudy
Mostly cloudy
 Wind from WSW
Wind: WSW 3 mph , 6 km/h
Temperature: 13°C
Dew Point: 12°C
Humidity: 94%
Barometer: 1015 hPa
Clouds: Mostly cloudy
Visibility: 6 miles , 10 km
Cloud details: Mostly cloudy 1250 m
2019/07/17 02:50 EGOS 170250Z AUTO 25003KT 9999 BKN041/// 13/12 Q1015
EGYH - Holbeach (aut), United Kingdom
Distance: ESE 62mi, 99km
Updated: 16/07/2019 15:50
NOT Current
Partly cloudy
Partly cloudy
 Wind from ESE
Wind: ESE 7 mph , 11 km/h
Temperature: 23°C
Dew Point: 14°C
Humidity: 57%
Barometer: 1017 hPa
Clouds: Partly cloudy
Visibility: 6 miles , 10 km
Cloud details: Few Clouds 914 m
Partly cloudy 1219 m
2019/07/16 14:50 EGYH 161450Z 12006KT 9999 FEW030 SCT040 23/14 Q1017 BLU
 
EGXV - Leconfield (aut), United Kingdom
Distance: NNE 65mi, 105km
Updated: 17/07/2019 03:50
Partly cloudy
Partly cloudy
 Wind from SW
Wind: SW 2 mph , 4 km/h
Temperature: 12°C
Dew Point: 10°C
Humidity: 88%
Barometer: 1015 hPa
Clouds: Partly cloudy
Visibility: 6 miles , 10 km
Cloud details: Partly cloudy 2134 m
2019/07/17 02:50 EGXV 170250Z AUTO 23002KT 9999 SCT070/// 12/10 Q1015
EGXS - Donna Nook Raf, United Kingdom
Distance: ENE 66mi, 106km
Updated: 17/07/2019 03:50
Mostly cloudy
Mostly cloudy
 Wind from SW
Wind: SW 3 mph , 6 km/h
Temperature: 15°C
Dew Point: 13°C
Humidity: 88%
Barometer: 1015 hPa
Clouds: Mostly cloudy
Visibility: 6 miles , 10 km
Cloud details: Mostly cloudy 1829 m
Mostly cloudy 2743 m
2019/07/17 02:50 EGXS 170250Z AUTO 22003KT 9999 // BKN060/// BKN090/// 15/13 Q1015
EGGP - Liverpool Airpor, United Kingdom
Distance: WNW 67mi, 107km
Updated: 17/07/2019 03:50
Clear
Clear
 Wind from SSE
Wind: SSE 5 mph , 7 km/h
Temperature: 15°C
Dew Point: 13°C
Humidity: 88%
Barometer: 1015 hPa
Summary: Clear
Visibility: greater than 7 miles , 10 km
2019/07/17 02:50 EGGP 170250Z 16004KT CAVOK 15/13 Q1015
 
EGXU - Linton-On-Ouse R, United Kingdom
Distance: N 68mi, 109km
Updated: 17/07/2019 03:50
Few Clouds
Few Clouds
 Wind from SSW
Wind: SSW 2 mph , 4 km/h
Temperature: 12°C
Dew Point: 9°C
Humidity: 82%
Barometer: 1015 hPa
Clouds: Few Clouds
Visibility: 6 miles , 10 km
Cloud details: Few Clouds 2134 m
2019/07/17 02:50 EGXU 170250Z AUTO 21002KT 9999 // FEW070/// 12/09 Q1015
EGNR - Hawarden (aut), United Kingdom
Distance: W 70mi, 112km
Updated: 16/07/2019 20:20
NOT Current
Few Clouds
Few Clouds
 Wind from NW
Wind: NW 9 mph , 15 km/h
Temperature: 19°C
Dew Point: 12°C
Humidity: 64%
Barometer: 1018 hPa
Clouds: Few Clouds
Visibility: 6 miles , 10 km
Cloud details: Few Clouds 1036 m
2019/07/16 19:20 EGNR 161920Z 32008KT 9999 FEW034 19/12 Q1018